Time;durP1;ratioP1;P1;durP2;ratioP2;P2;SDS_P1;SDS_P2;PMS_P1;PMS_P2;Temp;Humidity;BMP_temperature;BMP_pressure;BME280_temperature;BME280_humidity;BME280_pressure;Samples;Min_cycle;Max_cycle;Signal;HPM_P1;HPM_P2
2023/03/08 00:01:33;;;;;;;0.70;0.70;;;;;;;7.95;96.45;98659.34;5056610;28;20201;-66
2023/03/08 00:04:00;;;;;;;0.60;0.60;;;;;;;7.83;96.42;98665.66;5052301;28;20266;-65
2023/03/08 00:06:28;;;;;;;0.60;0.60;;;;;;;7.43;97.49;98671.13;5052929;28;20274;-66
2023/03/08 00:08:56;;;;;;;0.50;0.50;;;;;;;7.26;98.26;98674.16;5054146;28;20200;-65
2023/03/08 00:11:23;;;;;;;0.50;0.50;;;;;;;7.29;98.69;98681.72;5053964;28;20676;-66
2023/03/08 00:13:49;;;;;;;0.40;0.40;;;;;;;7.28;98.77;98680.03;5056239;28;20200;-65
2023/03/08 00:16:16;;;;;;;0.77;0.77;;;;;;;7.28;99.11;98677.50;5054605;28;20201;-65
2023/03/08 00:18:43;;;;;;;0.53;0.53;;;;;;;7.30;98.84;98675.72;5063992;28;20201;-65
2023/03/08 00:21:12;;;;;;;0.90;0.90;;;;;;;7.35;98.46;98673.91;5053606;28;20295;-65
2023/03/08 00:23:41;;;;;;;0.80;0.80;;;;;;;7.38;97.92;98673.81;5052797;28;20220;-66
2023/03/08 00:26:08;;;;;;;0.70;0.70;;;;;;;7.36;97.18;98667.94;5053373;28;20676;-65
2023/03/08 00:28:35;;;;;;;0.50;0.50;;;;;;;7.42;96.95;98679.66;5053437;28;20193;-65
2023/03/08 00:31:03;;;;;;;0.50;0.50;;;;;;;7.29;97.07;98666.44;5072425;28;20204;-65
2023/03/08 00:33:31;;;;;;;0.50;0.50;;;;;;;7.37;96.93;98684.88;5073425;28;20196;-66
2023/03/08 00:35:59;;;;;;;1.20;1.20;;;;;;;7.33;96.86;98696.03;5068588;28;20201;-65
2023/03/08 00:38:26;;;;;;;0.50;0.50;;;;;;;7.28;96.59;98687.69;5071463;28;20261;-65
2023/03/08 00:40:55;;;;;;;0.60;0.60;;;;;;;7.25;97.12;98692.88;5057143;28;20269;-65
2023/03/08 00:43:22;;;;;;;0.50;0.50;;;;;;;7.10;97.10;98662.72;5053204;28;20216;-66
2023/03/08 00:45:48;;;;;;;0.70;0.70;;;;;;;7.14;97.38;98674.47;5053136;28;20205;-65
2023/03/08 00:48:15;;;;;;;0.70;0.70;;;;;;;7.01;97.86;98651.97;5053263;28;20665;-65
2023/03/08 00:50:43;;;;;;;0.80;0.80;;;;;;;7.09;98.05;98661.06;5053198;28;20197;-66
2023/03/08 00:53:11;;;;;;;0.60;0.60;;;;;;;7.07;97.88;98667.91;5066274;28;20196;-65
2023/03/08 00:55:37;;;;;;;0.47;0.47;;;;;;;7.04;98.11;98670.56;5073148;28;20200;-66
2023/03/08 00:58:06;;;;;;;0.67;0.67;;;;;;;7.00;98.15;98665.56;5072765;28;20192;-65
2023/03/08 01:00:32;;;;;;;0.60;0.60;;;;;;;6.87;98.25;98654.88;5072798;28;20195;-65
2023/03/08 01:02:59;;;;;;;0.70;0.70;;;;;;;6.97;97.91;98671.59;5072767;28;20664;-65
2023/03/08 01:05:26;;;;;;;0.50;0.50;;;;;;;6.95;98.12;98678.41;5065621;28;20227;-65
2023/03/08 01:07:53;;;;;;;0.57;0.57;;;;;;;6.88;97.55;98667.56;5069029;28;20204;-66
2023/03/08 01:10:19;;;;;;;0.80;0.80;;;;;;;6.85;97.38;98677.00;5063957;28;20257;-65
2023/03/08 01:12:46;;;;;;;0.40;0.40;;;;;;;6.84;97.70;98680.44;5061602;28;20212;-65
2023/03/08 01:15:15;;;;;;;0.63;0.63;;;;;;;6.81;97.20;98666.06;5071587;28;20188;-65
2023/03/08 01:17:41;;;;;;;0.67;0.67;;;;;;;6.81;97.22;98675.44;5071593;28;20215;-65
2023/03/08 01:20:09;;;;;;;0.50;0.50;;;;;;;6.81;96.85;98676.25;5067745;28;20631;-66
2023/03/08 01:22:36;;;;;;;0.50;0.50;;;;;;;6.80;96.73;98676.28;5052486;28;20197;-65
2023/03/08 01:25:03;;;;;;;0.60;0.60;;;;;;;6.78;96.26;98678.06;5067997;28;20602;-65
2023/03/08 01:27:30;;;;;;;0.50;0.50;;;;;;;6.77;96.41;98678.91;5056751;28;20193;-65
2023/03/08 01:29:57;;;;;;;0.50;0.50;;;;;;;6.66;96.58;98655.44;5052709;28;20196;-65
2023/03/08 01:32:25;;;;;;;1.30;1.30;;;;;;;6.70;96.33;98669.75;5052158;28;20204;-65
2023/03/08 01:34:52;;;;;;;0.50;0.50;;;;;;;6.68;96.58;98666.44;5052363;28;20193;-66
2023/03/08 01:37:19;;;;;;;0.50;0.50;;;;;;;6.66;96.25;98663.06;5070884;28;20216;-65
2023/03/08 01:39:46;;;;;;;0.53;0.53;;;;;;;6.64;96.16;98668.22;5052118;28;20200;-65
2023/03/08 01:42:12;;;;;;;0.60;0.60;;;;;;;6.63;96.22;98670.78;5051926;28;20584;-65
2023/03/08 01:44:50;;;;;;;0.50;0.50;;;;;;;6.60;96.48;98675.97;5052196;28;20212;-65
2023/03/08 01:47:19;;;;;;;0.50;0.50;;;;;;;6.55;96.14;98672.72;5052139;28;20680;-65
2023/03/08 01:49:47;;;;;;;0.70;0.70;;;;;;;6.52;96.23;98678.72;5062907;28;20215;-65
2023/03/08 01:52:17;;;;;;;0.60;0.60;;;;;;;6.50;96.54;98675.38;5071922;28;20200;-65
2023/03/08 01:54:47;;;;;;;0.50;0.50;;;;;;;6.48;96.07;98678.84;5069858;28;20208;-66
2023/03/08 01:57:18;;;;;;;0.57;0.57;;;;;;;6.38;96.72;98668.06;5065637;28;20243;-65
2023/03/08 01:59:46;;;;;;;0.50;0.50;;;;;;;6.41;96.02;98675.59;5051669;28;20201;-65
2023/03/08 02:02:13;;;;;;;0.60;0.60;;;;;;;6.36;95.81;98672.34;5069120;28;20246;-65
2023/03/08 02:04:41;;;;;;;0.60;0.60;;;;;;;6.24;96.14;98653.13;5070994;28;20297;-65
2023/03/08 02:07:09;;;;;;;0.60;0.60;;;;;;;6.30;96.15;98663.13;5071489;28;20196;-65
2023/03/08 02:09:36;;;;;;;0.60;0.60;;;;;;;6.30;96.06;98667.41;5071661;28;20633;-65
2023/03/08 02:12:08;;;;;;;0.70;0.70;;;;;;;6.26;95.94;98665.81;5071579;28;20367;-65
2023/03/08 02:14:35;;;;;;;0.60;0.60;;;;;;;6.23;95.58;98661.66;5058113;28;20192;-65
2023/03/08 02:17:02;;;;;;;0.50;0.50;;;;;;;6.22;95.85;98662.50;5068830;28;20204;-65
2023/03/08 02:19:38;;;;;;;0.60;0.60;;;;;;;6.02;95.54;98636.69;5071161;28;20204;-65
2023/03/08 02:22:11;;;;;;;0.63;0.63;;;;;;;6.14;96.17;98668.66;5069766;28;20574;-65
2023/03/08 02:24:40;;;;;;;0.50;0.50;;;;;;;6.05;95.62;98677.34;5051704;28;20220;-65
2023/03/08 02:27:09;;;;;;;0.50;0.50;;;;;;;6.00;96.55;98689.34;5051081;28;20201;-65
2023/03/08 02:29:36;;;;;;;0.53;0.53;;;;;;;5.89;96.63;98676.00;5050101;28;20204;-65
2023/03/08 02:32:03;;;;;;;0.97;0.97;;;;;;;5.92;96.70;98686.13;5057296;28;20201;-65
2023/03/08 02:34:30;;;;;;;2.20;1.43;;;;;;;5.88;96.83;98689.59;5062714;28;20680;-65
2023/03/08 02:36:57;;;;;;;0.77;0.77;;;;;;;5.82;97.35;98695.63;5051078;28;20197;-65
2023/03/08 02:39:23;;;;;;;0.63;0.63;;;;;;;5.66;97.26;98673.13;5050991;28;20203;-65
2023/03/08 02:41:52;;;;;;;0.60;0.60;;;;;;;5.79;97.25;98699.94;5051190;28;20243;-65
2023/03/08 02:44:18;;;;;;;0.60;0.60;;;;;;;5.78;97.18;98698.28;5069772;28;20212;-65
2023/03/08 02:46:45;;;;;;;0.60;0.60;;;;;;;5.64;97.13;98674.88;5069838;28;20203;-65
2023/03/08 02:49:12;;;;;;;0.50;0.50;;;;;;;5.74;97.45;98692.44;5070564;28;20203;-65
2023/03/08 02:51:39;;;;;;;0.70;0.70;;;;;;;5.73;97.01;98705.16;5070880;28;20212;-65
2023/03/08 02:54:06;;;;;;;0.50;0.50;;;;;;;5.72;97.50;98703.50;5070680;28;20203;-65
2023/03/08 02:56:32;;;;;;;0.70;0.70;;;;;;;5.73;97.08;98705.16;5068228;28;20204;-65
2023/03/08 02:59:01;;;;;;;0.60;0.60;;;;;;;5.59;96.97;98681.78;5051463;28;20214;-65
2023/03/08 03:01:27;;;;;;;0.83;0.83;;;;;;;5.68;97.40;98709.53;5052264;28;20196;-65
2023/03/08 03:03:55;;;;;;;0.60;0.60;;;;;;;5.68;97.18;98701.91;5055575;28;20216;-65
2023/03/08 03:06:22;;;;;;;0.60;0.60;;;;;;;5.67;96.89;98700.22;5050309;28;20290;-65
2023/03/08 03:08:49;;;;;;;0.63;0.63;;;;;;;5.61;96.79;98705.44;5050870;28;20201;-65
2023/03/08 03:11:18;;;;;;;0.67;0.67;;;;;;;5.58;96.87;98708.06;5062497;28;20713;-65
2023/03/08 03:13:46;;;;;;;0.77;0.77;;;;;;;5.47;96.99;98702.34;5064978;28;20197;-65
2023/03/08 03:16:15;;;;;;;0.70;0.70;;;;;;;5.35;96.81;98688.19;5054138;28;20656;-74
2023/03/08 03:18:43;;;;;;;0.50;0.50;;;;;;;5.41;96.95;98702.47;5050169;28;20201;-74
2023/03/08 03:21:12;;;;;;;0.60;0.60;;;;;;;5.39;97.17;98707.59;5054338;28;20242;-74
2023/03/08 03:23:39;;;;;;;0.53;0.53;;;;;;;5.35;97.22;98707.69;5059779;28;20204;-74
2023/03/08 03:26:08;;;;;;;0.60;0.60;;;;;;;5.32;97.62;98710.28;5061838;28;20203;-75
2023/03/08 03:28:35;;;;;;;0.80;0.80;;;;;;;5.31;97.88;98712.00;5064233;28;20250;-74
2023/03/08 03:31:07;;;;;;;0.60;0.60;;;;;;;5.29;97.71;98704.41;5062674;28;20205;-75
2023/03/08 03:33:35;;;;;;;0.50;0.50;;;;;;;5.32;97.88;98712.84;5058536;28;20200;-74
2023/03/08 03:36:02;;;;;;;0.60;0.60;;;;;;;5.29;97.66;98714.59;5065438;28;20192;-75
2023/03/08 03:38:29;;;;;;;0.57;0.57;;;;;;;5.30;97.77;98721.31;5070740;28;20199;-74
2023/03/08 03:41:01;;;;;;;0.60;0.60;;;;;;;5.18;98.10;98713.09;5057478;28;20204;-75
2023/03/08 03:43:28;;;;;;;0.57;0.57;;;;;;;5.09;98.16;98720.91;5057275;28;20639;-74
2023/03/08 03:45:58;;;;;;;0.50;0.50;;;;;;;5.03;98.79;98711.72;5054750;28;20217;-75
2023/03/08 03:48:25;;;;;;;0.60;0.60;;;;;;;5.11;99.05;98729.31;5054729;28;20664;-75
2023/03/08 03:50:58;;;;;;;0.60;0.60;;;;;;;5.03;98.74;98718.47;5060895;28;20196;-75
2023/03/08 03:53:25;;;;;;;0.63;0.63;;;;;;;4.95;98.62;98708.47;5071206;28;20261;-75
2023/03/08 03:55:55;;;;;;;0.93;0.93;;;;;;;4.94;98.43;98716.97;5067489;28;20203;-75
2023/03/08 03:58:22;;;;;;;0.50;0.50;;;;;;;5.11;98.54;98742.03;5057392;28;20627;-75
2023/03/08 04:00:48;;;;;;;0.60;0.60;;;;;;;5.08;98.60;98742.91;5057951;28;20211;-74
2023/03/08 04:03:15;;;;;;;0.50;0.50;;;;;;;5.00;98.41;98727.00;5053858;28;20199;-75
2023/03/08 04:05:42;;;;;;;0.70;0.70;;;;;;;5.08;98.25;98754.78;5055648;28;20228;-74
2023/03/08 04:08:10;;;;;;;0.70;0.70;;;;;;;5.07;98.29;98748.06;5058869;28;20200;-74
2023/03/08 04:10:37;;;;;;;0.50;0.50;;;;;;;5.05;98.37;98750.59;5058955;28;20619;-74
2023/03/08 04:13:03;;;;;;;0.60;0.60;;;;;;;4.97;98.12;98737.22;5068096;28;20558;-75
2023/03/08 04:15:30;;;;;;;0.60;0.60;;;;;;;5.03;98.29;98741.34;5054178;28;20623;-75
2023/03/08 04:17:57;;;;;;;0.50;0.50;;;;;;;4.98;97.86;98738.88;5072630;28;20646;-75
2023/03/08 04:20:24;;;;;;;0.57;0.57;;;;;;;5.06;98.21;98753.97;5059238;28;20621;-75
2023/03/08 04:22:51;;;;;;;0.53;0.53;;;;;;;5.04;97.96;98765.88;5056996;28;20200;-75
2023/03/08 04:25:19;;;;;;;0.53;0.53;;;;;;;5.00;98.21;98761.72;5068846;28;20213;-75
2023/03/08 04:27:46;;;;;;;0.50;0.50;;;;;;;4.97;98.39;98764.31;5070067;28;20208;-74
2023/03/08 04:30:13;;;;;;;0.63;0.63;;;;;;;4.93;98.11;98768.63;5059214;28;20199;-74
2023/03/08 04:32:40;;;;;;;0.60;0.60;;;;;;;4.93;98.30;98775.38;5061799;28;20201;-75
2023/03/08 04:35:07;;;;;;;0.80;0.80;;;;;;;4.90;98.16;98776.28;5061574;28;20196;-75
2023/03/08 04:37:35;;;;;;;0.60;0.60;;;;;;;4.84;97.92;98766.25;5065883;28;20203;-75
2023/03/08 04:40:05;;;;;;;0.77;0.77;;;;;;;4.79;98.15;98773.06;5058826;28;20213;-74
2023/03/08 04:42:34;;;;;;;0.70;0.70;;;;;;;4.76;98.48;98768.06;5058840;28;20200;-75
2023/03/08 04:45:00;;;;;;;0.60;0.60;;;;;;;4.75;98.55;98768.91;5056417;28;20216;-74
2023/03/08 04:47:27;;;;;;;0.60;0.60;;;;;;;4.71;98.56;98763.06;5068821;28;20205;-74
2023/03/08 04:49:54;;;;;;;0.60;0.60;;;;;;;4.64;98.48;98753.88;5061987;28;20684;-75
2023/03/08 04:52:21;;;;;;;0.67;0.67;;;;;;;4.73;98.60;98773.19;5069423;28;20205;-74
2023/03/08 04:54:47;;;;;;;0.50;0.50;;;;;;;4.73;98.46;98771.50;5058871;28;20226;-75
2023/03/08 04:57:14;;;;;;;0.60;0.60;;;;;;;4.72;98.54;98761.34;5063380;28;20258;-74
2023/03/08 04:59:43;;;;;;;0.60;0.60;;;;;;;4.61;98.23;98748.84;5064877;28;20208;-75
2023/03/08 05:02:10;;;;;;;0.70;0.70;;;;;;;4.71;98.71;98759.69;5065496;28;20273;-74
2023/03/08 05:04:37;;;;;;;0.67;0.67;;;;;;;4.69;98.64;98752.09;5065221;28;20236;-74
2023/03/08 05:07:04;;;;;;;0.60;0.60;;;;;;;4.72;98.41;98756.28;5064097;28;20222;-74
2023/03/08 05:09:30;;;;;;;0.60;0.60;;;;;;;4.72;98.20;98757.13;5062174;28;20207;-74
2023/03/08 05:11:58;;;;;;;0.60;0.60;;;;;;;4.73;98.28;98757.97;5061435;28;20683;-75
2023/03/08 05:14:25;;;;;;;0.60;0.60;;;;;;;4.74;98.29;98759.63;5061066;28;20215;-74
2023/03/08 05:16:56;;;;;;;0.60;0.60;;;;;;;4.64;98.09;98758.97;5063752;28;20587;-75
2023/03/08 05:19:23;;;;;;;0.70;0.70;;;;;;;4.72;98.22;98768.97;5061666;28;20197;-74
2023/03/08 05:21:50;;;;;;;0.50;0.50;;;;;;;4.74;98.30;98769.78;5064548;28;20285;-74
2023/03/08 05:24:17;;;;;;;0.63;0.63;;;;;;;4.72;98.59;98772.34;5055716;28;20209;-74
2023/03/08 05:26:43;;;;;;;0.70;0.70;;;;;;;4.78;98.05;98776.50;5061683;28;20609;-74
2023/03/08 05:29:10;;;;;;;0.57;0.57;;;;;;;4.78;98.22;98776.50;5059815;28;20199;-75
2023/03/08 05:31:38;;;;;;;0.50;0.50;;;;;;;4.81;98.66;98776.44;5064347;28;20207;-74
2023/03/08 05:34:06;;;;;;;0.50;0.50;;;;;;;4.82;98.77;98780.63;5069805;28;20227;-75
2023/03/08 05:36:33;;;;;;;0.63;0.63;;;;;;;4.85;98.76;98792.47;5063897;28;20197;-74
2023/03/08 05:39:00;;;;;;;0.50;0.50;;;;;;;4.89;98.95;98792.38;5072040;28;20257;-74
2023/03/08 05:41:27;;;;;;;0.50;0.50;;;;;;;4.85;98.85;98780.59;5057027;28;20196;-74
2023/03/08 05:43:53;;;;;;;0.57;0.57;;;;;;;4.95;99.03;98793.97;5052344;28;20280;-74
2023/03/08 05:46:20;;;;;;;0.70;0.70;;;;;;;4.96;100.00;98791.41;5064439;28;20573;-75
2023/03/08 05:48:47;;;;;;;0.70;0.70;;;;;;;4.92;100.00;98799.94;5060721;28;20205;-74
2023/03/08 05:51:17;;;;;;;0.60;0.60;;;;;;;4.87;100.00;98806.81;5063681;28;20715;-74
2023/03/08 05:53:45;;;;;;;0.60;0.60;;;;;;;4.84;100.00;98796.72;5068081;28;20197;-72
2023/03/08 05:56:13;;;;;;;0.63;0.63;;;;;;;4.95;100.00;98799.03;5063765;28;20579;-72
2023/03/08 05:58:40;;;;;;;0.50;0.50;;;;;;;5.13;100.00;98814.81;5055919;28;20209;-77
2023/03/08 06:01:12;;;;;;;0.63;0.63;;;;;;;5.34;100.00;98823.75;5062318;28;20224;-73
2023/03/08 06:03:39;;;;;;;0.60;0.60;;;;;;;5.59;100.00;98824.94;5055567;28;20204;-74
2023/03/08 06:06:06;;;;;;;0.50;0.50;;;;;;;5.76;100.00;98822.09;5059418;28;20311;-72
2023/03/08 06:08:34;;;;;;;0.60;0.60;;;;;;;6.01;100.00;98827.56;5058486;28;20211;-68
2023/03/08 06:11:01;;;;;;;0.60;0.60;;;;;;;6.18;100.00;98826.31;5062100;28;20587;-68
2023/03/08 06:13:28;;;;;;;0.77;0.77;;;;;;;6.37;99.66;98815.72;5069121;28;20695;-67
2023/03/08 06:15:56;;;;;;;0.63;0.63;;;;;;;6.51;97.86;98822.19;5060835;28;20193;-68
2023/03/08 06:18:23;;;;;;;0.50;0.50;;;;;;;6.60;96.81;98823.66;5057949;28;20568;-72
2023/03/08 06:20:58;;;;;;;0.60;0.60;;;;;;;6.69;96.35;98823.44;5059077;28;20281;-73
2023/03/08 06:23:25;;;;;;;0.50;0.50;;;;;;;6.76;96.96;98819.88;5062915;28;20256;-74
2023/03/08 06:25:53;;;;;;;0.60;0.60;;;;;;;6.79;97.96;98820.66;5060585;28;20231;-74
2023/03/08 06:28:21;;;;;;;0.50;0.50;;;;;;;6.86;98.60;98831.53;5055989;28;20200;-74
2023/03/08 06:30:49;;;;;;;0.53;0.53;;;;;;;6.89;99.86;98831.44;5060516;28;20204;-74
2023/03/08 06:33:16;;;;;;;0.60;0.60;;;;;;;6.87;99.59;98825.56;5057364;28;20250;-75
2023/03/08 06:35:43;;;;;;;0.40;0.40;;;;;;;7.08;100.00;98852.22;5066045;28;20984;-72
2023/03/08 06:38:10;;;;;;;0.60;0.60;;;;;;;7.18;100.00;98846.84;5065566;28;20567;-71
2023/03/08 06:40:37;;;;;;;0.50;0.50;;;;;;;7.27;100.00;98864.47;5050832;28;20196;-68
2023/03/08 06:43:05;;;;;;;0.55;0.55;;;;;;;7.46;100.00;98864.00;5061517;28;20437;-70
2023/03/08 06:45:32;;;;;;;0.50;0.50;;;;;;;7.59;100.00;98873.84;5061597;28;20215;-71
2023/03/08 06:47:59;;;;;;;0.50;0.50;;;;;;;7.73;100.00;98868.34;5061136;28;20676;-67
2023/03/08 06:50:26;;;;;;;0.50;0.50;;;;;;;7.88;100.00;98866.22;5065188;28;20203;-68
2023/03/08 06:52:54;;;;;;;1.13;0.90;;;;;;;7.95;100.00;98864.31;5063847;28;20323;-68
2023/03/08 06:55:20;;;;;;;0.60;0.60;;;;;;;8.11;100.00;98875.78;5057026;28;20193;-70
2023/03/08 06:57:47;;;;;;;0.60;0.60;;;;;;;8.25;100.00;98875.38;5062537;28;20208;-68
2023/03/08 07:00:17;;;;;;;0.50;0.50;;;;;;;8.50;99.19;98880.66;5065120;28;20203;-68
2023/03/08 07:02:44;;;;;;;0.40;0.40;;;;;;;8.63;97.93;98884.47;5063256;28;20648;-66
2023/03/08 07:05:10;;;;;;;0.50;0.50;;;;;;;8.72;97.00;98879.09;5061950;28;20251;-69
2023/03/08 07:07:38;;;;;;;1.07;1.07;;;;;;;8.76;96.24;98870.44;5050887;28;20692;-66
2023/03/08 07:10:06;;;;;;;0.50;0.50;;;;;;;9.00;95.15;98890.13;5058737;28;20205;-74
2023/03/08 07:12:35;;;;;;;0.50;0.50;;;;;;;9.10;96.15;98891.50;5053945;28;20583;-72
2023/03/08 07:15:02;;;;;;;0.43;0.43;;;;;;;9.04;96.20;98850.81;5069603;28;20203;-69
2023/03/08 07:17:31;;;;;;;0.63;0.63;;;;;;;9.47;92.79;98886.84;5061527;28;20193;-71
2023/03/08 07:19:58;;;;;;;0.50;0.50;;;;;;;9.69;92.65;98886.13;5062412;28;20231;-72
2023/03/08 07:22:25;;;;;;;0.40;0.40;;;;;;;9.86;90.15;98884.63;5069968;28;20782;-70
2023/03/08 07:24:51;;;;;;;0.57;0.57;;;;;;;10.02;89.42;98884.91;5069736;28;20207;-71
2023/03/08 07:27:18;;;;;;;0.50;0.50;;;;;;;10.28;87.45;98884.81;5064678;28;20216;-69
2023/03/08 07:30:17;;;;;;;0.60;0.60;;;;;;;10.44;87.25;98888.47;5065891;28;20212;-69
2023/03/08 07:32:45;;;;;;;0.40;0.40;;;;;;;10.62;88.20;98891.25;5064670;28;20635;-70
2023/03/08 07:35:14;;;;;;;0.50;0.50;;;;;;;10.77;86.45;98886.34;5063982;28;20250;-70
2023/03/08 07:38:24;;;;;;;0.40;0.40;;;;;;;10.94;84.92;98893.41;5053077;28;20231;-71
2023/03/08 07:40:54;;;;;;;0.50;0.50;;;;;;;11.02;84.55;98881.09;5061101;28;20196;-69
2023/03/08 07:43:21;;;;;;;0.60;0.60;;;;;;;11.24;85.13;98892.16;5071609;28;20207;-69
2023/03/08 07:45:48;;;;;;;0.50;0.50;;;;;;;11.51;84.56;98896.16;5062736;28;20265;-71
2023/03/08 07:48:16;;;;;;;0.40;0.40;;;;;;;11.73;83.17;98900.44;5071431;28;20200;-70
2023/03/08 07:50:43;;;;;;;0.50;0.50;;;;;;;11.93;81.63;98897.81;5071285;28;20211;-71
2023/03/08 07:53:10;;;;;;;0.70;0.70;;;;;;;12.15;80.28;98897.72;5058325;28;20207;-70
2023/03/08 07:55:37;;;;;;;0.97;0.97;;;;;;;12.35;80.06;98895.06;5051386;28;20208;-69
2023/03/08 07:58:03;;;;;;;0.60;0.60;;;;;;;12.59;79.47;98894.81;5060626;28;20211;-69
2023/03/08 08:00:30;;;;;;;0.60;0.60;;;;;;;12.84;79.01;98899.63;5071390;28;20214;-70
2023/03/08 08:02:57;;;;;;;0.60;0.60;;;;;;;13.04;78.35;98896.09;5062806;28;20203;-70
2023/03/08 08:05:25;;;;;;;0.80;0.80;;;;;;;13.19;78.15;98889.41;5056888;28;20236;-70
2023/03/08 08:07:52;;;;;;;0.40;0.40;;;;;;;13.33;76.51;98890.41;5059491;28;20206;-71
2023/03/08 08:10:19;;;;;;;0.70;0.70;;;;;;;13.45;75.83;98894.94;5053071;28;20208;-70
2023/03/08 08:12:46;;;;;;;0.40;0.40;;;;;;;13.63;75.82;98891.44;5066665;28;20211;-68
2023/03/08 08:15:13;;;;;;;0.50;0.50;;;;;;;13.81;74.23;98899.13;5055226;28;20205;-73
2023/03/08 08:17:39;;;;;;;0.60;0.60;;;;;;;13.92;73.20;98896.88;5050655;28;20631;-73
2023/03/08 08:20:07;;;;;;;0.60;0.60;;;;;;;14.14;73.60;98898.25;5068731;28;20216;-68
2023/03/08 08:22:37;;;;;;;0.50;0.50;;;;;;;14.23;73.32;98891.75;5059600;28;20202;-68
2023/03/08 08:25:04;;;;;;;0.50;0.50;;;;;;;14.33;72.75;98900.69;5051193;28;20205;-68
2023/03/08 08:27:31;;;;;;;0.50;0.50;;;;;;;14.45;74.92;98897.47;5061314;28;20228;-67
2023/03/08 08:29:58;;;;;;;0.50;0.50;;;;;;;14.68;73.19;98894.47;5071447;28;20266;-67
2023/03/08 08:32:25;;;;;;;0.50;0.50;;;;;;;14.81;71.47;98893.78;5059314;28;20196;-69
2023/03/08 08:34:51;;;;;;;0.60;0.60;;;;;;;14.93;70.48;98898.25;5058868;28;20667;-69
2023/03/08 08:37:18;;;;;;;1.60;0.77;;;;;;;14.98;69.69;98891.13;5066705;28;20581;-69
2023/03/08 08:39:46;;;;;;;0.50;0.50;;;;;;;15.09;69.30;98899.06;5066549;28;20234;-68
2023/03/08 08:42:13;;;;;;;0.70;0.70;;;;;;;15.23;70.11;98901.72;5066388;28;20200;-68
2023/03/08 08:44:40;;;;;;;0.40;0.40;;;;;;;15.32;68.96;98901.19;5054659;28;20282;-69
2023/03/08 08:47:07;;;;;;;0.50;0.50;;;;;;;15.42;67.29;98904.91;5063905;28;20669;-68
2023/03/08 08:49:35;;;;;;;0.53;0.53;;;;;;;15.55;67.89;98898.16;5057654;28;20204;-69
2023/03/08 08:52:02;;;;;;;0.90;0.90;;;;;;;15.59;66.12;98898.78;5066242;28;20203;-68
2023/03/08 08:54:28;;;;;;;0.50;0.50;;;;;;;15.66;64.34;98877.69;5063790;28;20200;-69
2023/03/08 08:56:57;;;;;;;0.50;0.50;;;;;;;15.79;63.99;98892.47;5063833;28;20658;-69
2023/03/08 08:59:23;;;;;;;0.30;0.30;;;;;;;15.95;64.76;98882.88;5056693;28;20667;-68
2023/03/08 09:01:50;;;;;;;0.70;0.70;;;;;;;16.07;65.36;98875.19;5062329;28;20209;-69
2023/03/08 09:04:19;;;;;;;1.00;1.00;;;;;;;16.15;64.29;98883.34;5064684;28;20201;-68
2023/03/08 09:06:46;;;;;;;0.60;0.60;;;;;;;16.32;65.66;98879.69;5060677;28;20660;-69
2023/03/08 09:09:13;;;;;;;0.50;0.50;;;;;;;16.50;68.03;98872.56;5066309;28;20278;-69
2023/03/08 09:11:39;;;;;;;0.50;0.50;;;;;;;16.60;64.48;98866.75;5063539;28;20230;-69
2023/03/08 09:14:07;;;;;;;0.70;0.70;;;;;;;16.74;65.61;98866.69;5060941;28;20635;-69
2023/03/08 09:16:34;;;;;;;0.60;0.60;;;;;;;16.89;62.74;98858.88;5069109;28;20203;-69
2023/03/08 09:19:04;;;;;;;0.50;0.50;;;;;;;16.98;61.93;98863.47;5072142;28;20203;-69
2023/03/08 09:21:31;;;;;;;0.30;0.30;;;;;;;17.23;59.35;98858.34;5058673;28;20196;-69
2023/03/08 09:24:00;;;;;;;0.50;0.50;;;;;;;17.44;57.75;98862.13;5067926;28;20207;-69
2023/03/08 09:26:29;;;;;;;0.57;0.57;;;;;;;17.56;61.73;98865.66;5060654;28;20278;-69
2023/03/08 09:28:55;;;;;;;0.60;0.60;;;;;;;17.58;58.31;98862.03;5058241;28;20631;-69
2023/03/08 09:31:24;;;;;;;0.40;0.40;;;;;;;17.58;57.31;98864.63;5054379;28;20197;-70
2023/03/08 09:33:51;;;;;;;0.53;0.53;;;;;;;17.63;58.25;98856.56;5051909;28;20205;-70
2023/03/08 09:36:19;;;;;;;0.50;0.50;;;;;;;17.68;59.63;98860.50;5061379;28;20196;-70
2023/03/08 09:38:47;;;;;;;0.40;0.40;;;;;;;17.64;57.20;98861.63;5058063;28;20665;-69
2023/03/08 09:41:34;;;;;;;0.50;0.50;;;;;;;17.68;56.09;98846.69;5056732;28;20208;-70
2023/03/08 09:44:11;;;;;;;0.60;0.60;;;;;;;17.76;56.22;98863.41;5060871;28;20197;-69
2023/03/08 09:46:46;;;;;;;0.70;0.70;;;;;;;17.77;56.19;98867.63;5058665;28;20595;-69
2023/03/08 09:49:16;;;;;;;0.50;0.50;;;;;;;17.95;54.58;98851.78;5060090;28;20246;-69
2023/03/08 09:51:48;;;;;;;0.47;0.47;;;;;;;17.93;54.86;98848.47;5070361;28;20207;-69
2023/03/08 09:54:18;;;;;;;0.70;0.70;;;;;;;18.01;57.41;98851.34;5061045;28;20504;-68
2023/03/08 09:56:48;;;;;;;0.43;0.43;;;;;;;18.12;58.54;98848.84;5064516;28;21048;-69
2023/03/08 09:59:20;;;;;;;0.50;0.50;;;;;;;18.13;54.30;98855.66;5061850;28;21217;-69
2023/03/08 10:02:00;;;;;;;0.33;0.33;;;;;;;18.16;54.43;98851.09;5059859;28;20208;-70
2023/03/08 10:04:45;;;;;;;0.40;0.40;;;;;;;18.21;56.39;98849.03;5061782;28;20231;-72
2023/03/08 10:07:31;;;;;;;0.40;0.40;;;;;;;18.22;54.26;98845.47;5053520;28;20607;-71
2023/03/08 10:10:12;;;;;;;0.50;0.50;;;;;;;18.33;54.03;98844.75;5057812;28;20219;-71
2023/03/08 10:12:52;;;;;;;0.40;0.40;;;;;;;18.51;55.09;98846.09;5066602;28;20579;-72
2023/03/08 10:15:22;;;;;;;0.50;0.50;;;;;;;18.52;50.96;98846.88;5061782;28;20261;-71
2023/03/08 10:17:55;;;;;;;0.40;0.40;;;;;;;18.45;53.11;98841.25;5060196;28;20197;-71
2023/03/08 10:20:24;;;;;;;0.50;0.50;;;;;;;18.51;50.99;98835.69;5059047;28;20723;-71
2023/03/08 10:22:57;;;;;;;0.40;0.40;;;;;;;18.58;50.77;98831.69;5057075;28;20206;-71
2023/03/08 10:25:27;;;;;;;0.47;0.47;;;;;;;18.73;51.59;98827.19;5055660;28;20209;-71
2023/03/08 10:27:57;;;;;;;0.80;0.80;;;;;;;18.88;55.72;98819.09;5059483;28;20231;-71
2023/03/08 10:30:26;;;;;;;0.50;0.50;;;;;;;18.81;51.31;98812.69;5059492;28;20259;-73
2023/03/08 10:32:58;;;;;;;0.40;0.40;;;;;;;18.63;50.67;98813.22;5057449;28;20209;-71
2023/03/08 10:35:35;;;;;;;0.40;0.40;;;;;;;18.59;46.18;98815.19;5054888;28;20674;-70
2023/03/08 10:38:02;;;;;;;0.40;0.40;;;;;;;18.68;47.38;98808.50;5055394;28;20194;-72
2023/03/08 10:40:29;;;;;;;0.40;0.40;;;;;;;18.83;45.96;98797.84;5059316;28;20203;-71
2023/03/08 10:43:00;;;;;;;0.40;0.40;;;;;;;19.00;46.82;98795.78;5054513;28;20200;-75
2023/03/08 10:45:28;;;;;;;1.13;1.13;;;;;;;19.20;47.65;98797.69;5061704;28;20206;-72
2023/03/08 10:47:59;;;;;;;0.80;0.80;;;;;;;19.13;45.74;98796.50;5054033;28;20747;-72
2023/03/08 10:50:27;;;;;;;0.40;0.40;;;;;;;19.14;48.94;98787.78;5058762;28;20221;-72
2023/03/08 10:52:55;;;;;;;0.30;0.30;;;;;;;19.24;48.50;98788.75;5060905;28;20196;-67
2023/03/08 10:55:23;;;;;;;0.63;0.63;;;;;;;19.33;47.78;98785.44;5060427;28;20209;-71
2023/03/08 10:57:54;;;;;;;0.40;0.40;;;;;;;19.40;45.87;98784.06;5055401;28;20974;-67
2023/03/08 11:00:34;;;;;;;0.30;0.30;;;;;;;19.44;46.03;98780.31;5047896;28;20458;-69
2023/03/08 11:03:12;;;;;;;0.50;0.50;;;;;;;19.63;46.74;98774.53;5049573;28;20205;-68
2023/03/08 11:05:39;;;;;;;0.30;0.30;;;;;;;19.67;44.53;98771.56;5058008;28;20307;-69
2023/03/08 11:08:18;;;;;;;0.43;0.43;;;;;;;19.57;46.45;98765.44;5061374;28;20218;-68
2023/03/08 11:10:45;;;;;;;0.50;0.50;;;;;;;19.61;44.78;98766.03;5065462;28;20264;-68
2023/03/08 11:13:24;;;;;;;0.60;0.60;;;;;;;19.58;43.46;98758.47;5068977;28;20239;-69
2023/03/08 11:15:59;;;;;;;0.40;0.40;;;;;;;19.54;42.88;98760.47;5066887;28;20282;-68
2023/03/08 11:18:40;;;;;;;0.47;0.47;;;;;;;19.58;44.87;98754.06;5070030;28;20194;-68
2023/03/08 11:21:14;;;;;;;0.50;0.50;;;;;;;19.53;43.56;98755.38;5069979;28;20203;-68
2023/03/08 11:23:47;;;;;;;0.50;0.50;;;;;;;19.61;46.46;98740.81;5062852;28;20233;-69
2023/03/08 11:26:23;;;;;;;0.60;0.60;;;;;;;19.60;42.90;98744.38;5070601;28;20650;-69
2023/03/08 11:29:11;;;;;;;0.40;0.40;;;;;;;19.62;39.74;98726.88;5050857;28;20619;-68
2023/03/08 11:31:46;;;;;;;0.57;0.57;;;;;;;19.63;40.90;98738.94;5070150;28;20250;-68
2023/03/08 11:34:40;;;;;;;0.40;0.40;;;;;;;19.67;40.76;98729.97;5064138;28;20670;-68
2023/03/08 11:37:14;;;;;;;0.50;0.50;;;;;;;19.66;39.84;98725.69;5062943;28;20202;-68
2023/03/08 11:39:46;;;;;;;0.70;0.70;;;;;;;19.69;40.31;98722.88;5069516;28;20230;-68
2023/03/08 11:42:31;;;;;;;0.97;0.97;;;;;;;19.85;41.84;98723.31;5070121;28;20202;-68
2023/03/08 11:45:18;;;;;;;0.50;0.50;;;;;;;19.98;40.92;98711.94;5070154;28;20200;-68
2023/03/08 11:48:07;;;;;;;0.30;0.30;;;;;;;19.95;40.05;98707.81;5067215;28;20261;-68